Comers Rock, Virginia
Current Conditions -  °F | °C
As of 12:35 AM on Monday 22 Dec 2014 (Local Time) from KMKJ Reporting Station
Overcast Overcast  
Wind Chill: 32°   Ceiling: 1000
Heat Index: 38°   Visibility: 7mi
Dew Point: 35°   Wind: 8mph
Humidity: 88%   Direction: 70°ENE
Pressure: 30.16"   Gusts: NA
Location:  36.73°N, 81.1929°W
Report Text: KMKJ 220535Z AUTO 07007KT 7SM OVC010 04/02 A3016 RMK AO2 T00350017
Loading
Personal Weather Stations






























Interactive Weather Map New forecast layout! Learn more

10-Day Weather Forecast

Advertisements
Track Severe Weather on mobile